Time;durP1;ratioP1;P1;durP2;ratioP2;P2;SDS_P1;SDS_P2;PMS_P1;PMS_P2;Temp;Humidity;BMP_temperature;BMP_pressure;BME280_temperature;BME280_humidity;BME280_pressure;Samples;Min_cycle;Max_cycle;Signal;HPM_P1;HPM_P2
2022/09/18 00:01:33;;;;;;;2.85;1.20;;;;;;;;;;5120284;28;20045;-84
2022/09/18 00:04:00;;;;;;;3.20;1.00;;;;;;;;;;5109407;28;20054;-83
2022/09/18 00:06:29;;;;;;;3.45;1.10;;;;;;;;;;5109906;28;20030;-84
2022/09/18 00:08:57;;;;;;;3.90;1.20;;;;;;;;;;5090611;28;20032;-82
2022/09/18 00:11:25;;;;;;;2.88;0.90;;;;;;;;;;5106829;28;20435;-81
2022/09/18 00:13:51;;;;;;;2.78;1.00;;;;;;;;;;5111637;28;20020;-80
2022/09/18 00:16:18;;;;;;;2.75;1.00;;;;;;;;;;5112444;28;20032;-80
2022/09/18 00:18:44;;;;;;;3.75;1.00;;;;;;;;;;5091534;28;20817;-82
2022/09/18 00:21:13;;;;;;;3.65;1.63;;;;;;;;;;5091318;28;20028;-83
2022/09/18 00:23:39;;;;;;;4.63;1.17;;;;;;;;;;5106605;28;20054;-82
2022/09/18 00:26:07;;;;;;;4.30;1.38;;;;;;;;;;5110515;28;20020;-82
2022/09/18 00:28:34;;;;;;;3.28;1.30;;;;;;;;;;5103041;28;20387;-82
2022/09/18 00:31:09;;;;;;;2.88;1.10;;;;;;;;;;5115286;28;20031;-84
2022/09/18 00:33:38;;;;;;;3.17;1.10;;;;;;;;;;5103654;28;20020;-81
2022/09/18 00:36:05;;;;;;;3.78;1.05;;;;;;;;;;5103774;28;20042;-82
2022/09/18 00:38:35;;;;;;;3.40;1.15;;;;;;;;;;5105579;28;20050;-85
2022/09/18 00:41:02;;;;;;;3.20;1.20;;;;;;;;;;5103336;28;20041;-85
2022/09/18 00:43:29;;;;;;;3.28;1.20;;;;;;;;;;5101102;28;20027;-85
2022/09/18 00:45:57;;;;;;;3.10;1.17;;;;;;;;;;5089998;28;20047;-80
2022/09/18 00:48:24;;;;;;;2.05;0.90;;;;;;;;;;5096162;28;20040;-82
2022/09/18 00:50:51;;;;;;;2.25;0.90;;;;;;;;;;5090377;28;20127;-83
2022/09/18 00:53:17;;;;;;;3.08;1.50;;;;;;;;;;5076260;28;20020;-80
2022/09/18 00:55:43;;;;;;;2.33;1.00;;;;;;;;;;5085794;28;20736;-82
2022/09/18 00:58:10;;;;;;;2.78;1.20;;;;;;;;;;5109431;28;20034;-84
2022/09/18 01:00:36;;;;;;;2.72;1.10;;;;;;;;;;5084735;28;20096;-84
2022/09/18 01:03:03;;;;;;;2.42;0.98;;;;;;;;;;5095535;28;20112;-83
2022/09/18 01:05:35;;;;;;;2.47;1.02;;;;;;;;;;5097433;28;20186;-81
2022/09/18 01:08:20;;;;;;;2.80;1.10;;;;;;;;;;5115729;28;20423;-80
2022/09/18 01:10:47;;;;;;;3.50;1.10;;;;;;;;;;5105121;28;20040;-82
2022/09/18 01:13:22;;;;;;;3.15;1.10;;;;;;;;;;5094843;28;20058;-83
2022/09/18 01:15:56;;;;;;;2.70;1.30;;;;;;;;;;5096844;28;20069;-83
2022/09/18 01:18:25;;;;;;;3.60;1.65;;;;;;;;;;5095760;28;20043;-84
2022/09/18 01:21:09;;;;;;;3.08;1.23;;;;;;;;;;5098552;28;20485;-82
2022/09/18 01:23:51;;;;;;;3.90;1.67;;;;;;;;;;5093463;28;20047;-81
2022/09/18 01:26:40;;;;;;;4.22;1.63;;;;;;;;;;5096437;28;20056;-83
2022/09/18 01:29:26;;;;;;;3.47;1.52;;;;;;;;;;5095025;28;20040;-83
2022/09/18 01:31:56;;;;;;;3.50;1.48;;;;;;;;;;5091816;28;20055;-80
2022/09/18 01:34:37;;;;;;;4.45;1.67;;;;;;;;;;5096718;28;20497;-83
2022/09/18 01:37:22;;;;;;;5.25;1.50;;;;;;;;;;5095532;28;20515;-82
2022/09/18 01:40:01;;;;;;;4.28;1.60;;;;;;;;;;5089317;28;20031;-81
2022/09/18 01:42:28;;;;;;;4.30;1.73;;;;;;;;;;5096234;28;20020;-84
2022/09/18 01:44:56;;;;;;;3.75;1.90;;;;;;;;;;5095107;28;20023;-82
2022/09/18 01:47:24;;;;;;;3.80;1.70;;;;;;;;;;5095055;28;20488;-81
2022/09/18 01:49:52;;;;;;;4.28;1.90;;;;;;;;;;5093256;28;20047;-83
2022/09/18 01:52:37;;;;;;;4.47;2.03;;;;;;;;;;5076071;28;20036;-81
2022/09/18 01:55:05;;;;;;;3.53;1.65;;;;;;;;;;5089705;28;20024;-81
2022/09/18 01:57:34;;;;;;;4.50;1.85;;;;;;;;;;5094288;28;20027;-83
2022/09/18 02:00:01;;;;;;;4.07;1.92;;;;;;;;;;5097244;28;20027;-81
2022/09/18 02:02:31;;;;;;;3.25;1.50;;;;;;;;;;5074632;28;20032;-80
2022/09/18 02:04:59;;;;;;;3.95;1.75;;;;;;;;;;5079782;28;20008;-82
2022/09/18 02:07:44;;;;;;;3.58;1.75;;;;;;;;;;5094836;28;20042;-82
2022/09/18 02:10:10;;;;;;;3.75;1.73;;;;;;;;;;5094062;28;20026;-83
2022/09/18 02:12:38;;;;;;;3.47;1.70;;;;;;;;;;5096137;28;20071;-82
2022/09/18 02:15:08;;;;;;;4.65;1.52;;;;;;;;;;5086234;28;20032;-82
2022/09/18 02:17:57;;;;;;;3.05;1.30;;;;;;;;;;5090780;28;20033;-82
2022/09/18 02:20:25;;;;;;;3.33;1.67;;;;;;;;;;5076388;28;20036;-83
2022/09/18 02:22:52;;;;;;;4.45;1.73;;;;;;;;;;5074309;28;20032;-80
2022/09/18 02:25:21;;;;;;;3.63;1.40;;;;;;;;;;5085079;28;20075;-82
2022/09/18 02:27:48;;;;;;;3.25;1.30;;;;;;;;;;5089317;28;20024;-80
2022/09/18 02:30:14;;;;;;;3.70;1.65;;;;;;;;;;5094720;28;20027;-81
2022/09/18 02:32:43;;;;;;;3.15;1.17;;;;;;;;;;5105035;28;20103;-82
2022/09/18 02:35:36;;;;;;;3.25;1.30;;;;;;;;;;5105877;28;20070;-82
2022/09/18 02:38:41;;;;;;;3.10;1.27;;;;;;;;;;5086872;28;20118;-82
2022/09/18 02:41:16;;;;;;;3.30;1.30;;;;;;;;;;5060481;28;20069;-82
2022/09/18 02:43:51;;;;;;;4.13;1.50;;;;;;;;;;5076889;28;20412;-82
2022/09/18 02:46:25;;;;;;;2.65;1.30;;;;;;;;;;5115962;28;20043;-81
2022/09/18 02:48:54;;;;;;;3.22;1.50;;;;;;;;;;5116837;28;20028;-82
2022/09/18 02:51:26;;;;;;;3.03;1.40;;;;;;;;;;5117098;28;20078;-81
2022/09/18 02:54:01;;;;;;;3.33;1.20;;;;;;;;;;5116537;28;20395;-82
2022/09/18 02:56:47;;;;;;;3.60;1.40;;;;;;;;;;5116756;28;20036;-83
2022/09/18 02:59:19;;;;;;;3.35;1.25;;;;;;;;;;5105119;28;20032;-83
2022/09/18 03:01:46;;;;;;;3.35;1.30;;;;;;;;;;5104414;28;20066;-83
2022/09/18 03:04:13;;;;;;;3.67;1.50;;;;;;;;;;5095532;28;20158;-84
2022/09/18 03:06:43;;;;;;;4.30;1.40;;;;;;;;;;5068099;28;20032;-82
2022/09/18 03:09:10;;;;;;;3.22;1.40;;;;;;;;;;5077843;28;20189;-83
2022/09/18 03:11:49;;;;;;;2.42;1.13;;;;;;;;;;5090325;28;20059;-84
2022/09/18 03:14:17;;;;;;;2.83;1.23;;;;;;;;;;5099855;28;20143;-83
2022/09/18 03:16:44;;;;;;;2.90;1.20;;;;;;;;;;5067052;28;20044;-85
2022/09/18 03:19:13;;;;;;;4.15;1.50;;;;;;;;;;5088285;28;20404;-82
2022/09/18 03:21:40;;;;;;;4.18;1.50;;;;;;;;;;5071068;28;20035;-86
2022/09/18 03:24:07;;;;;;;3.25;1.40;;;;;;;;;;5093201;28;20033;-83
2022/09/18 03:26:35;;;;;;;2.75;1.20;;;;;;;;;;5104850;28;20111;-84
2022/09/18 03:29:01;;;;;;;3.10;1.33;;;;;;;;;;5104748;28;20065;-85
2022/09/18 03:31:28;;;;;;;4.47;1.15;;;;;;;;;;5108037;28;20028;-84
2022/09/18 03:33:56;;;;;;;3.00;1.10;;;;;;;;;;5113864;28;20040;-83
2022/09/18 03:36:23;;;;;;;3.30;1.30;;;;;;;;;;5108686;28;20024;-86
2022/09/18 03:38:49;;;;;;;3.17;1.30;;;;;;;;;;5109199;28;20039;-83
2022/09/18 03:41:15;;;;;;;3.25;1.02;;;;;;;;;;5109633;28;20034;-82
2022/09/18 03:43:41;;;;;;;2.88;1.33;;;;;;;;;;5115071;28;20030;-83
2022/09/18 03:46:07;;;;;;;2.70;1.00;;;;;;;;;;5109076;28;20028;-83
2022/09/18 03:48:33;;;;;;;2.83;1.00;;;;;;;;;;5110248;28;20039;-84
2022/09/18 03:51:00;;;;;;;3.30;1.30;;;;;;;;;;5114113;28;20048;-86
2022/09/18 03:53:26;;;;;;;2.75;1.10;;;;;;;;;;5110202;28;20407;-84
2022/09/18 03:55:52;;;;;;;3.90;1.20;;;;;;;;;;5110273;28;20032;-83
2022/09/18 03:58:18;;;;;;;3.20;1.23;;;;;;;;;;5110636;28;20040;-83
2022/09/18 04:00:44;;;;;;;2.50;0.88;;;;;;;;;;5111225;28;20499;-83
2022/09/18 04:03:10;;;;;;;2.30;1.10;;;;;;;;;;5106486;28;20020;-86
2022/09/18 04:05:36;;;;;;;3.35;1.38;;;;;;;;;;5105429;28;20028;-83
2022/09/18 04:08:04;;;;;;;2.72;1.17;;;;;;;;;;5097212;28;20052;-84
2022/09/18 04:10:30;;;;;;;2.72;0.90;;;;;;;;;;5088091;28;20035;-83
2022/09/18 04:12:56;;;;;;;2.75;1.10;;;;;;;;;;5097532;28;20487;-83
2022/09/18 04:15:22;;;;;;;3.40;1.15;;;;;;;;;;5106263;28;20048;-82
2022/09/18 04:17:49;;;;;;;2.05;1.00;;;;;;;;;;5106275;28;20035;-82
2022/09/18 04:20:15;;;;;;;2.67;1.05;;;;;;;;;;5103077;28;20008;-82
2022/09/18 04:22:41;;;;;;;3.35;1.17;;;;;;;;;;5105194;28;20042;-81
2022/09/18 04:25:07;;;;;;;3.80;1.08;;;;;;;;;;5102421;28;20024;-83
2022/09/18 04:27:35;;;;;;;2.08;0.90;;;;;;;;;;5119750;28;20041;-83
2022/09/18 04:30:01;;;;;;;2.67;1.15;;;;;;;;;;5107483;28;20039;-83
2022/09/18 04:32:27;;;;;;;2.05;0.80;;;;;;;;;;5104188;28;20420;-83
2022/09/18 04:34:53;;;;;;;2.08;0.93;;;;;;;;;;5095014;28;20038;-86
2022/09/18 04:37:19;;;;;;;3.97;1.30;;;;;;;;;;5087074;28;20119;-84
2022/09/18 04:39:45;;;;;;;2.53;1.13;;;;;;;;;;5087971;28;20078;-82
2022/09/18 04:42:12;;;;;;;3.85;1.02;;;;;;;;;;5089135;28;20021;-84
2022/09/18 04:44:38;;;;;;;2.42;0.95;;;;;;;;;;5090559;28;20049;-83
2022/09/18 04:47:05;;;;;;;3.28;0.90;;;;;;;;;;5115603;28;20032;-84
2022/09/18 04:49:31;;;;;;;3.63;1.05;;;;;;;;;;5102340;28;20027;-83
2022/09/18 04:51:57;;;;;;;3.13;1.20;;;;;;;;;;5097336;28;20024;-82
2022/09/18 04:54:23;;;;;;;3.40;1.10;;;;;;;;;;5101874;28;20024;-83
2022/09/18 04:56:49;;;;;;;2.65;1.00;;;;;;;;;;5097695;28;20032;-83
2022/09/18 04:59:15;;;;;;;2.92;1.08;;;;;;;;;;5100159;28;20030;-83
2022/09/18 05:01:41;;;;;;;3.72;1.40;;;;;;;;;;5100397;28;20030;-83
2022/09/18 05:04:07;;;;;;;2.65;1.00;;;;;;;;;;5100091;28;20028;-85
2022/09/18 05:06:34;;;;;;;3.17;1.15;;;;;;;;;;5103623;28;20100;-82
2022/09/18 05:09:00;;;;;;;2.85;1.10;;;;;;;;;;5101636;28;20035;-85
2022/09/18 05:11:26;;;;;;;2.53;0.90;;;;;;;;;;5088916;28;20020;-86
2022/09/18 05:13:55;;;;;;;2.38;0.98;;;;;;;;;;5103533;28;20403;-84
2022/09/18 05:16:22;;;;;;;3.13;0.90;;;;;;;;;;5103217;28;20024;-84
2022/09/18 05:18:49;;;;;;;4.20;1.33;;;;;;;;;;5101552;28;20073;-84
2022/09/18 05:21:15;;;;;;;2.63;0.98;;;;;;;;;;5126001;28;20023;-86
2022/09/18 05:23:44;;;;;;;2.72;1.10;;;;;;;;;;5119523;28;20016;-84
2022/09/18 05:26:10;;;;;;;2.38;1.00;;;;;;;;;;5103483;28;20016;-85
2022/09/18 05:28:36;;;;;;;3.50;1.05;;;;;;;;;;5105478;28;20012;-84
2022/09/18 05:31:02;;;;;;;2.75;1.10;;;;;;;;;;5101914;28;20028;-84
2022/09/18 05:33:28;;;;;;;3.00;1.00;;;;;;;;;;5106525;28;20135;-84
2022/09/18 05:35:55;;;;;;;2.80;1.08;;;;;;;;;;5104116;28;20036;-86
2022/09/18 05:38:21;;;;;;;2.22;1.00;;;;;;;;;;5122330;28;20028;-82
2022/09/18 05:40:47;;;;;;;2.88;0.90;;;;;;;;;;5102837;28;20372;-84
2022/09/18 05:43:14;;;;;;;2.30;1.10;;;;;;;;;;5097231;28;20039;-83
2022/09/18 05:45:40;;;;;;;2.22;0.80;;;;;;;;;;5094910;28;20045;-82
2022/09/18 05:48:06;;;;;;;3.80;1.10;;;;;;;;;;5120985;28;20311;-84
2022/09/18 05:50:33;;;;;;;2.25;0.70;;;;;;;;;;5113447;28;20127;-83
2022/09/18 05:53:03;;;;;;;2.60;0.90;;;;;;;;;;5107098;28;20126;-83
2022/09/18 05:55:30;;;;;;;2.08;0.80;;;;;;;;;;5094955;28;20032;-83
2022/09/18 05:57:57;;;;;;;2.22;0.73;;;;;;;;;;5105631;28;20115;-84
2022/09/18 06:00:23;;;;;;;1.50;0.75;;;;;;;;;;5098652;28;20571;-84
2022/09/18 06:02:57;;;;;;;2.35;0.80;;;;;;;;;;5098348;28;20540;-82
2022/09/18 06:05:24;;;;;;;2.50;0.85;;;;;;;;;;5097235;28;20515;-82
2022/09/18 06:07:50;;;;;;;1.45;0.60;;;;;;;;;;5086968;28;20051;-83
2022/09/18 06:10:17;;;;;;;1.73;0.80;;;;;;;;;;5096585;28;20043;-84
2022/09/18 06:12:44;;;;;;;2.10;0.80;;;;;;;;;;5099032;28;20111;-82
2022/09/18 06:15:10;;;;;;;2.40;0.75;;;;;;;;;;5094234;28;20028;-83
2022/09/18 06:17:36;;;;;;;2.28;0.90;;;;;;;;;;5098877;28;20036;-86
2022/09/18 06:20:04;;;;;;;1.73;0.70;;;;;;;;;;5098506;28;20024;-81
2022/09/18 06:22:31;;;;;;;1.98;0.80;;;;;;;;;;5101361;28;20073;-85
2022/09/18 06:24:57;;;;;;;1.52;0.70;;;;;;;;;;5100289;28;20012;-83
2022/09/18 06:27:23;;;;;;;2.45;0.70;;;;;;;;;;5081695;28;20039;-82
2022/09/18 06:29:49;;;;;;;2.40;1.02;;;;;;;;;;5097757;28;20076;-81
2022/09/18 06:32:16;;;;;;;1.63;0.85;;;;;;;;;;5097103;28;20445;-82
2022/09/18 06:34:42;;;;;;;2.30;0.95;;;;;;;;;;5092010;28;20047;-80
2022/09/18 06:37:11;;;;;;;3.22;0.90;;;;;;;;;;5094960;28;20101;-81
2022/09/18 06:39:37;;;;;;;2.83;1.00;;;;;;;;;;5098739;28;20098;-81
2022/09/18 06:42:04;;;;;;;2.80;0.90;;;;;;;;;;5099270;28;20032;-83
2022/09/18 06:44:30;;;;;;;2.13;0.88;;;;;;;;;;5098560;28;20032;-82
2022/09/18 06:46:56;;;;;;;1.90;0.80;;;;;;;;;;5114880;28;20510;-81
2022/09/18 06:49:22;;;;;;;3.08;1.00;;;;;;;;;;5096529;28;20027;-83
2022/09/18 06:51:48;;;;;;;3.92;1.25;;;;;;;;;;5097865;28;20395;-80
2022/09/18 06:54:15;;;;;;;2.72;0.90;;;;;;;;;;5099741;28;20024;-80
2022/09/18 06:56:41;;;;;;;2.80;1.10;;;;;;;;;;5096806;28;20024;-82
2022/09/18 06:59:07;;;;;;;4.88;1.42;;;;;;;;;;5095599;28;20060;-81
2022/09/18 07:01:34;;;;;;;2.83;1.13;;;;;;;;;;5096594;28;20032;-81
2022/09/18 07:04:00;;;;;;;2.88;1.20;;;;;;;;;;5099759;28;20258;-82
2022/09/18 07:06:26;;;;;;;5.00;1.90;;;;;;;;;;5100047;28;20407;-81
2022/09/18 07:08:52;;;;;;;3.95;1.58;;;;;;;;;;5099238;28;20027;-82
2022/09/18 07:11:18;;;;;;;4.45;1.58;;;;;;;;;;5098311;28;20059;-80
2022/09/18 07:13:46;;;;;;;4.10;1.73;;;;;;;;;;5097571;28;20544;-81
2022/09/18 07:16:12;;;;;;;3.83;1.25;;;;;;;;;;5099292;28;20021;-81
2022/09/18 07:18:38;;;;;;;2.33;1.20;;;;;;;;;;5097305;28;20042;-81
2022/09/18 07:21:05;;;;;;;2.78;1.13;;;;;;;;;;5097779;28;20024;-82
2022/09/18 07:23:32;;;;;;;2.80;1.65;;;;;;;;;;5114375;28;20438;-82
2022/09/18 07:25:59;;;;;;;2.38;0.90;;;;;;;;;;5100125;28;20016;-81
2022/09/18 07:28:25;;;;;;;3.47;1.50;;;;;;;;;;5097235;28;20532;-82
2022/09/18 07:30:51;;;;;;;2.85;1.27;;;;;;;;;;5093864;28;20034;-81
2022/09/18 07:33:17;;;;;;;4.18;1.30;;;;;;;;;;5093812;28;20016;-84
2022/09/18 07:35:43;;;;;;;2.28;0.90;;;;;;;;;;5095050;28;20050;-81
2022/09/18 07:38:10;;;;;;;3.50;1.58;;;;;;;;;;5093439;28;20399;-80
2022/09/18 07:40:36;;;;;;;1.95;0.90;;;;;;;;;;5076848;28;20419;-80
2022/09/18 07:43:03;;;;;;;1.58;0.70;;;;;;;;;;5079744;28;20136;-80
2022/09/18 07:45:29;;;;;;;2.30;1.20;;;;;;;;;;5078907;28;20048;-84
2022/09/18 07:47:55;;;;;;;2.45;0.80;;;;;;;;;;5096799;28;20032;-81
2022/09/18 07:50:22;;;;;;;3.53;0.80;;;;;;;;;;5096476;28;20380;-82
2022/09/18 07:52:55;;;;;;;2.33;0.82;;;;;;;;;;5095593;28;20060;-84
2022/09/18 07:55:22;;;;;;;1.92;0.80;;;;;;;;;;5101597;28;20027;-82
2022/09/18 07:57:53;;;;;;;2.83;1.10;;;;;;;;;;5103434;28;20032;-82
2022/09/18 08:00:19;;;;;;;2.40;1.00;;;;;;;;;;5112560;28;20351;-82
2022/09/18 08:02:45;;;;;;;1.77;0.68;;;;;;;;;;5105943;28;20051;-80
2022/09/18 08:05:11;;;;;;;2.35;0.95;;;;;;;;;;5102932;28;20528;-79
2022/09/18 08:07:37;;;;;;;2.83;1.48;;;;;;;;;;5101737;28;20032;-82
2022/09/18 08:10:05;;;;;;;2.22;1.00;;;;;;;;;;5099192;28;20038;-82
2022/09/18 08:12:32;;;;;;;2.60;1.00;;;;;;;;;;5110537;28;20115;-81
2022/09/18 08:14:58;;;;;;;2.47;1.10;;;;;;;;;;5102618;28;20035;-83
2022/09/18 08:17:25;;;;;;;2.35;1.00;;;;;;;;;;5102630;28;20020;-83
2022/09/18 08:19:52;;;;;;;2.95;0.90;;;;;;;;;;5106417;28;20026;-81
2022/09/18 08:22:18;;;;;;;2.80;1.17;;;;;;;;;;5111974;28;20062;-83
2022/09/18 08:24:44;;;;;;;1.75;0.60;;;;;;;;;;5102696;28;20147;-82
2022/09/18 08:27:11;;;;;;;2.00;0.80;;;;;;;;;;5111994;28;20411;-83
2022/09/18 08:29:37;;;;;;;1.90;0.70;;;;;;;;;;5102317;28;20027;-82
2022/09/18 08:32:03;;;;;;;2.35;0.70;;;;;;;;;;5102646;28;20086;-82
2022/09/18 08:34:30;;;;;;;2.28;0.80;;;;;;;;;;5099183;28;20040;-83
2022/09/18 08:36:56;;;;;;;1.42;0.70;;;;;;;;;;5101142;28;20060;-82
2022/09/18 08:39:22;;;;;;;2.38;0.80;;;;;;;;;;5102127;28;20032;-81
2022/09/18 08:42:00;;;;;;;3.20;1.20;;;;;;;;;;5113469;28;20027;-84
2022/09/18 08:44:31;;;;;;;1.73;0.60;;;;;;;;;;5103070;28;20038;-82
2022/09/18 08:47:00;;;;;;;1.85;0.70;;;;;;;;;;5098103;28;20026;-82
2022/09/18 08:50:02;;;;;;;2.10;0.80;;;;;;;;;;5097420;28;20085;-81
2022/09/18 08:52:31;;;;;;;1.65;0.65;;;;;;;;;;5064135;28;20096;-85
2022/09/18 08:55:07;;;;;;;2.33;0.75;;;;;;;;;;5059267;28;20072;-80
2022/09/18 08:57:40;;;;;;;3.50;0.70;;;;;;;;;;5042352;28;20512;-81
2022/09/18 09:00:25;;;;;;;1.95;0.70;;;;;;;;;;5040915;28;20048;-81
2022/09/18 09:02:51;;;;;;;2.50;0.88;;;;;;;;;;5059451;28;20027;-83
2022/09/18 09:05:20;;;;;;;1.02;0.47;;;;;;;;;;5040976;28;20092;-82
2022/09/18 09:08:04;;;;;;;2.25;0.80;;;;;;;;;;5077851;28;20551;-82
2022/09/18 09:10:30;;;;;;;1.92;0.70;;;;;;;;;;5063679;28;20039;-81
2022/09/18 09:12:56;;;;;;;3.45;0.80;;;;;;;;;;5058502;28;20065;-82
2022/09/18 09:15:39;;;;;;;2.38;0.70;;;;;;;;;;5071214;28;20037;-82
2022/09/18 09:18:25;;;;;;;2.97;0.75;;;;;;;;;;5056816;28;20052;-84
2022/09/18 09:20:53;;;;;;;1.73;0.60;;;;;;;;;;5049340;28;20071;-82
2022/09/18 09:23:22;;;;;;;2.30;0.70;;;;;;;;;;5060048;28;20111;-83
2022/09/18 09:25:51;;;;;;;3.22;0.60;;;;;;;;;;5066837;28;20024;-82
2022/09/18 09:28:17;;;;;;;1.15;0.40;;;;;;;;;;5101380;28;20097;-81
2022/09/18 09:30:46;;;;;;;1.52;0.60;;;;;;;;;;5090732;28;20028;-82
2022/09/18 09:33:24;;;;;;;2.67;0.68;;;;;;;;;;5098849;28;20028;-82
2022/09/18 09:35:52;;;;;;;3.17;0.70;;;;;;;;;;5097397;28;20031;-82
2022/09/18 09:38:37;;;;;;;1.35;0.60;;;;;;;;;;5099420;28;20491;-81
2022/09/18 09:41:12;;;;;;;2.25;0.60;;;;;;;;;;5097921;28;20028;-81
2022/09/18 09:43:44;;;;;;;1.02;0.50;;;;;;;;;;5101749;28;20028;-81
2022/09/18 09:46:18;;;;;;;1.73;0.80;;;;;;;;;;5115764;28;20318;-82
2022/09/18 09:48:50;;;;;;;2.60;0.90;;;;;;;;;;5087806;28;20025;-82
2022/09/18 09:51:27;;;;;;;1.63;0.80;;;;;;;;;;5109573;28;20089;-83
2022/09/18 09:53:54;;;;;;;2.08;0.70;;;;;;;;;;5098176;28;20024;-82
2022/09/18 09:56:31;;;;;;;2.40;0.80;;;;;;;;;;5095467;28;20035;-83
2022/09/18 09:59:16;;;;;;;2.03;0.70;;;;;;;;;;5095991;28;20031;-82
2022/09/18 10:01:45;;;;;;;2.65;0.80;;;;;;;;;;5097478;28;20039;-82
2022/09/18 10:04:17;;;;;;;1.88;0.80;;;;;;;;;;5098617;28;20121;-84
2022/09/18 10:06:43;;;;;;;2.55;0.82;;;;;;;;;;5104653;28;20026;-83
2022/09/18 10:09:24;;;;;;;1.90;0.57;;;;;;;;;;5104951;28;20039;-86
2022/09/18 10:12:05;;;;;;;2.15;0.70;;;;;;;;;;5095762;28;20102;-86
2022/09/18 10:14:32;;;;;;;2.53;0.70;;;;;;;;;;5097484;28;20038;-83
2022/09/18 10:17:03;;;;;;;1.70;0.63;;;;;;;;;;5101440;28;20026;-85
2022/09/18 10:19:34;;;;;;;2.55;0.70;;;;;;;;;;5094636;28;20046;-83
2022/09/18 10:22:03;;;;;;;1.45;0.60;;;;;;;;;;5095467;28;20063;-82
2022/09/18 10:24:37;;;;;;;1.70;0.60;;;;;;;;;;5100748;28;20029;-81
2022/09/18 10:27:09;;;;;;;3.22;0.80;;;;;;;;;;5104715;28;20059;-84
2022/09/18 10:29:35;;;;;;;2.33;0.50;;;;;;;;;;5111685;28;20089;-82
2022/09/18 10:32:01;;;;;;;1.20;0.50;;;;;;;;;;5099601;28;20024;-83
2022/09/18 10:34:31;;;;;;;1.02;0.50;;;;;;;;;;5099722;28;20051;-83
2022/09/18 10:36:57;;;;;;;1.85;0.70;;;;;;;;;;5097818;28;20032;-82
2022/09/18 10:39:30;;;;;;;1.38;0.60;;;;;;;;;;5098894;28;20717;-81
2022/09/18 10:41:57;;;;;;;2.13;0.63;;;;;;;;;;5099650;28;20020;-84
2022/09/18 10:44:27;;;;;;;1.70;0.65;;;;;;;;;;5099711;28;20502;-82
2022/09/18 10:47:06;;;;;;;1.50;0.52;;;;;;;;;;5114050;28;20034;-83
2022/09/18 10:49:34;;;;;;;2.17;0.70;;;;;;;;;;5084472;28;20488;-83
2022/09/18 10:52:14;;;;;;;1.88;0.60;;;;;;;;;;5084995;28;20045;-82
2022/09/18 10:54:40;;;;;;;2.10;0.85;;;;;;;;;;5102066;28;20667;-81
2022/09/18 10:57:24;;;;;;;2.13;0.90;;;;;;;;;;5101454;28;20029;-83
2022/09/18 10:59:50;;;;;;;1.70;0.60;;;;;;;;;;5101433;28;20082;-83
2022/09/18 11:02:19;;;;;;;1.15;0.43;;;;;;;;;;5087718;28;20024;-82
2022/09/18 11:04:46;;;;;;;2.08;0.63;;;;;;;;;;5103408;28;20160;-81
2022/09/18 11:07:13;;;;;;;1.10;0.50;;;;;;;;;;5099166;28;20024;-83
2022/09/18 11:09:40;;;;;;;2.10;0.60;;;;;;;;;;5102102;28;20024;-83
2022/09/18 11:12:15;;;;;;;0.88;0.50;;;;;;;;;;5102804;28;20118;-82
2022/09/18 11:14:43;;;;;;;1.45;0.50;;;;;;;;;;5106346;28;20053;-84
2022/09/18 11:17:32;;;;;;;1.90;0.60;;;;;;;;;;5102617;28;20031;-82
2022/09/18 11:19:59;;;;;;;1.33;0.60;;;;;;;;;;5106717;28;20110;-84
2022/09/18 11:22:33;;;;;;;1.10;0.60;;;;;;;;;;5106934;28;20028;-84
2022/09/18 11:25:08;;;;;;;1.45;0.50;;;;;;;;;;5103987;28;20055;-86
2022/09/18 11:27:51;;;;;;;3.03;0.73;;;;;;;;;;5106942;28;20052;-82
2022/09/18 11:30:25;;;;;;;1.17;0.50;;;;;;;;;;5101715;28;20085;-83
2022/09/18 11:32:57;;;;;;;2.80;0.60;;;;;;;;;;5116207;28;20035;-83
2022/09/18 11:35:23;;;;;;;1.45;0.50;;;;;;;;;;5101797;28;20027;-81
2022/09/18 11:37:51;;;;;;;1.52;0.52;;;;;;;;;;5102312;28;20026;-81
2022/09/18 11:40:31;;;;;;;1.05;0.60;;;;;;;;;;5115558;28;20510;-83
2022/09/18 11:42:58;;;;;;;3.38;0.73;;;;;;;;;;5081657;28;20047;-80
2022/09/18 11:45:26;;;;;;;1.05;0.32;;;;;;;;;;5085913;28;20047;-81
2022/09/18 11:48:06;;;;;;;0.70;0.30;;;;;;;;;;5091121;28;20050;-82
2022/09/18 11:50:34;;;;;;;2.53;0.50;;;;;;;;;;5106131;28;20062;-82
2022/09/18 11:53:04;;;;;;;1.27;0.50;;;;;;;;;;5125284;28;20332;-82
2022/09/18 11:55:38;;;;;;;2.03;0.70;;;;;;;;;;5127348;28;20035;-83
2022/09/18 11:58:24;;;;;;;1.05;0.40;;;;;;;;;;5124336;28;20077;-81
2022/09/18 12:00:58;;;;;;;2.03;0.60;;;;;;;;;;5104803;28;20084;-80
2022/09/18 12:03:27;;;;;;;1.92;0.60;;;;;;;;;;5087835;28;20066;-81
2022/09/18 12:05:59;;;;;;;0.93;0.40;;;;;;;;;;5087983;28;20032;-81
2022/09/18 12:08:34;;;;;;;1.25;0.60;;;;;;;;;;5103948;28;20134;-81
2022/09/18 12:11:08;;;;;;;0.73;0.40;;;;;;;;;;5103277;28;20028;-81
2022/09/18 12:13:49;;;;;;;1.20;0.50;;;;;;;;;;5094083;28;20530;-80
2022/09/18 12:16:29;;;;;;;1.38;0.38;;;;;;;;;;5106910;28;20023;-83
2022/09/18 12:19:00;;;;;;;1.63;0.57;;;;;;;;;;5124008;28;20020;-79
2022/09/18 12:21:34;;;;;;;2.38;0.75;;;;;;;;;;5084055;28;20031;-82
2022/09/18 12:24:00;;;;;;;2.92;0.90;;;;;;;;;;5100972;28;20023;-81
2022/09/18 12:26:43;;;;;;;2.17;0.80;;;;;;;;;;5105250;28;20037;-81
2022/09/18 12:29:17;;;;;;;2.70;0.77;;;;;;;;;;5103822;28;20045;-81
2022/09/18 12:31:52;;;;;;;3.67;0.75;;;;;;;;;;5096070;28;20061;-81
2022/09/18 12:34:31;;;;;;;2.28;0.70;;;;;;;;;;5092098;28;20042;-81
2022/09/18 12:36:58;;;;;;;1.33;0.57;;;;;;;;;;5101425;28;20036;-81
2022/09/18 12:39:27;;;;;;;2.92;0.60;;;;;;;;;;5103243;28;20393;-81
2022/09/18 12:41:53;;;;;;;2.72;0.60;;;;;;;;;;5099947;28;20032;-85
2022/09/18 12:44:36;;;;;;;1.30;0.50;;;;;;;;;;5110263;28;20015;-84
2022/09/18 12:47:01;;;;;;;;;;;;;;;;;;5121332;28;20035;-86
2022/09/18 12:49:46;;;;;;;1.70;0.50;;;;;;;;;;5116840;27;19907;-85
2022/09/18 12:52:12;;;;;;;1.98;0.60;;;;;;;;;;5101062;28;20027;-84
2022/09/18 12:54:48;;;;;;;2.90;0.70;;;;;;;;;;5099189;28;20031;-84
2022/09/18 12:57:40;;;;;;;4.88;1.30;;;;;;;;;;5106464;28;20047;-83
2022/09/18 13:00:09;;;;;;;4.00;1.50;;;;;;;;;;5100525;28;20036;-84
2022/09/18 13:02:53;;;;;;;3.28;1.50;;;;;;;;;;5114875;28;20028;-83
2022/09/18 13:05:28;;;;;;;8.10;3.70;;;;;;;;;;5105057;28;20027;-84
2022/09/18 13:08:00;;;;;;;3.55;1.13;;;;;;;;;;5099015;28;20027;-83
2022/09/18 13:10:29;;;;;;;2.03;0.90;;;;;;;;;;5099402;28;20020;-85
2022/09/18 13:13:11;;;;;;;2.72;0.90;;;;;;;;;;5101115;28;20020;-83
2022/09/18 13:15:40;;;;;;;2.30;0.70;;;;;;;;;;5098390;28;20044;-85
2022/09/18 13:18:16;;;;;;;2.35;0.70;;;;;;;;;;5101543;28;20111;-84
2022/09/18 13:20:44;;;;;;;2.08;0.55;;;;;;;;;;5090841;28;20038;-85
2022/09/18 13:23:21;;;;;;;3.47;1.15;;;;;;;;;;5081200;28;20025;-84
2022/09/18 13:25:50;;;;;;;2.67;0.90;;;;;;;;;;5080442;28;20056;-83
2022/09/18 13:28:18;;;;;;;3.30;0.90;;;;;;;;;;5080123;28;20020;-84
2022/09/18 13:30:46;;;;;;;2.67;0.90;;;;;;;;;;5093687;28;20028;-84
2022/09/18 13:33:25;;;;;;;3.20;1.00;;;;;;;;;;5098346;28;20059;-83
2022/09/18 13:35:58;;;;;;;2.10;0.82;;;;;;;;;;5113226;28;20525;-84
2022/09/18 13:38:26;;;;;;;3.15;0.90;;;;;;;;;;5117308;28;20056;-84
2022/09/18 13:40:59;;;;;;;2.95;1.00;;;;;;;;;;5099951;28;20051;-83
2022/09/18 13:43:27;;;;;;;2.28;0.88;;;;;;;;;;5083513;28;20046;-84
2022/09/18 13:45:55;;;;;;;3.17;1.13;;;;;;;;;;5081358;28;20082;-83
2022/09/18 13:48:24;;;;;;;3.30;1.00;;;;;;;;;;5097475;28;20028;-83
2022/09/18 13:50:55;;;;;;;2.47;0.93;;;;;;;;;;5081998;28;20049;-83
2022/09/18 13:53:30;;;;;;;1.85;0.90;;;;;;;;;;5096773;28;20032;-83
2022/09/18 13:55:56;;;;;;;2.28;0.90;;;;;;;;;;5102425;28;20179;-83
2022/09/18 13:58:32;;;;;;;3.33;1.10;;;;;;;;;;5103381;28;20048;-82
2022/09/18 14:00:59;;;;;;;3.42;1.10;;;;;;;;;;5095318;28;20031;-82
2022/09/18 14:03:25;;;;;;;2.90;0.98;;;;;;;;;;5101204;28;20053;-82
2022/09/18 14:05:52;;;;;;;3.28;0.98;;;;;;;;;;5101441;28;20046;-83
2022/09/18 14:08:21;;;;;;;2.63;1.02;;;;;;;;;;5100974;28;20028;-83
2022/09/18 14:10:47;;;;;;;2.47;1.00;;;;;;;;;;5101203;28;20028;-84
2022/09/18 14:13:16;;;;;;;2.97;1.10;;;;;;;;;;5101512;28;20487;-83
2022/09/18 14:16:00;;;;;;;2.72;1.15;;;;;;;;;;5104220;28;20031;-82
2022/09/18 14:18:28;;;;;;;2.30;1.05;;;;;;;;;;5119451;28;20492;-83
2022/09/18 14:21:13;;;;;;;3.10;1.10;;;;;;;;;;5102042;28;20031;-84
2022/09/18 14:23:39;;;;;;;2.95;1.20;;;;;;;;;;5098966;28;20152;-84
2022/09/18 14:26:36;;;;;;;3.25;1.23;;;;;;;;;;5108250;28;20024;-84
2022/09/18 14:29:14;;;;;;;2.55;1.00;;;;;;;;;;5120324;28;20080;-82
2022/09/18 14:31:46;;;;;;;2.47;0.90;;;;;;;;;;5104195;28;20487;-82
2022/09/18 14:34:18;;;;;;;2.33;1.03;;;;;;;;;;5100870;28;20032;-83
2022/09/18 14:36:44;;;;;;;2.00;0.90;;;;;;;;;;5105041;28;20032;-83
2022/09/18 14:39:34;;;;;;;2.35;0.90;;;;;;;;;;5096943;28;20024;-81
2022/09/18 14:42:11;;;;;;;2.38;1.00;;;;;;;;;;5103667;28;20024;-82
2022/09/18 14:44:37;;;;;;;2.53;0.95;;;;;;;;;;5103982;28;20016;-82
2022/09/18 14:47:05;;;;;;;3.47;1.00;;;;;;;;;;5101511;28;20020;-84
2022/09/18 14:49:34;;;;;;;3.10;1.10;;;;;;;;;;5099243;28;20020;-84
2022/09/18 14:52:00;;;;;;;2.88;1.27;;;;;;;;;;5100689;28;20555;-85
2022/09/18 14:54:27;;;;;;;2.72;1.10;;;;;;;;;;5099837;28;20032;-81
2022/09/18 14:56:55;;;;;;;2.13;1.10;;;;;;;;;;5098506;28;20143;-84
2022/09/18 14:59:23;;;;;;;3.00;1.20;;;;;;;;;;5100138;28;20461;-80
2022/09/18 15:01:49;;;;;;;3.30;1.15;;;;;;;;;;5096535;28;20020;-80